Annamarie — CQFZ — position and weather

sailwx.info

Track history (hours):
 
Tides and Currents Weather Stations Pressure Air Temp Water Temp Dewpoint Dewpoint Depression Visibility Wind Speed Wind Dir Waves Ship Positions

Annamarie

Last reported at 2017-Dec-11 17:00 UTC. Time now 2017-Dec-12 15:46 UTC.
Position N 28°35' W 015°56'.

Length 138 m; draft 6.2 m.

Type: Cargo ship. MMSI: 255805627.

Date/timePositionNaut miles runAvg speedWind from/ knotsBaromVisibWave heightAir tempDewpointWater temp
2017-Dec-11 17:00N 28°35' W 015°56'612.7
2017-Dec-11 16:30N 28°32' W 016°02'611.1
2017-Dec-11 16:00N 28°30' W 016°08'5 9.9
2017-Dec-11 15:31N 28°29' W 016°14'0 0.7
2017-Dec-11 14:59N 28°29' W 016°14'0 0.0
2017-Dec-11 14:29N 28°29' W 016°14'0 0.0
2017-Dec-11 13:59N 28°29' W 016°14'0 0.0
2017-Dec-11 13:29N 28°29' W 016°14'0 0.0
2017-Dec-11 12:59N 28°29' W 016°14'0 0.0
2017-Dec-11 12:29N 28°29' W 016°14'0 0.0
2017-Dec-11 11:53N 28°29' W 016°14'0 0.0
2017-Dec-11 11:29N 28°29' W 016°14'0 0.0
2017-Dec-11 10:59N 28°29' W 016°14'0 0.0
2017-Dec-11 10:29N 28°29' W 016°14'0 0.0
2017-Dec-11 09:59N 28°29' W 016°14'0 0.0
2017-Dec-11 09:29N 28°29' W 016°14'0 0.0
2017-Dec-11 08:59N 28°29' W 016°14'0 0.0
2017-Dec-11 08:30N 28°29' W 016°14'1 2.3
2017-Dec-11 08:01N 28°28' W 016°13'1 1.0
2017-Dec-11 07:31N 28°28' W 016°12'1 1.1
2017-Dec-11 07:01N 28°28' W 016°12'4 7.5
2017-Dec-11 06:31N 28°26' W 016°08'5 9.3
2017-Dec-11 06:01N 28°25' W 016°03'5 9.5
2017-Dec-11 05:31N 28°23' W 015°58'5 9.5
2017-Dec-11 05:01N 28°21' W 015°53'5 9.1
2017-Dec-11 04:30N 28°19' W 015°48'5 9.5
2017-Dec-11 04:00N 28°18' W 015°43'5 9.8
2017-Dec-11 03:30N 28°16' W 015°38'5 9.6
2017-Dec-11 03:00N 28°15' W 015°33'5 9.6
2017-Dec-11 02:30N 28°13' W 015°28'4 8.9
2017-Dec-11 02:00N 28°11' W 015°23'4 8.7
2017-Dec-11 01:30N 28°07' W 015°24'1 2.1
2017-Dec-11 00:54N 28°08' W 015°25'0 0.0
2017-Dec-11 00:24N 28°08' W 015°25'0 0.0
2017-Dec-10 23:54N 28°08' W 015°25'0 0.0
2017-Dec-10 23:24N 28°08' W 015°25'0 0.0
2017-Dec-10 22:54N 28°08' W 015°25'0 0.0
2017-Dec-10 22:27N 28°08' W 015°25'0 0.0
2017-Dec-10 21:57N 28°08' W 015°25'0 0.0
2017-Dec-10 21:27N 28°08' W 015°25'0 0.0
2017-Dec-10 20:57N 28°08' W 015°25'0 0.0
2017-Dec-10 20:27N 28°08' W 015°25'0 0.0
2017-Dec-10 20:00N 28°08' W 015°25'0 0.0
2017-Dec-10 19:30N 28°08' W 015°25'0 0.0
2017-Dec-10 19:00N 28°08' W 015°25'0 0.0
2017-Dec-10 18:30N 28°08' W 015°25'0 0.0
2017-Dec-10 18:00N 28°08' W 015°25'0 0.0
2017-Dec-10 17:30N 28°08' W 015°25'0 0.0
2017-Dec-10 17:00N 28°08' W 015°25'0 0.0
2017-Dec-10 16:30N 28°08' W 015°25'0 0.0
2017-Dec-10 16:00N 28°08' W 015°25'0 0.0
2017-Dec-10 15:30N 28°08' W 015°25'0 0.0
2017-Dec-10 15:00N 28°08' W 015°25'0 0.0
2017-Dec-10 14:30N 28°08' W 015°25'0 0.0
2017-Dec-10 14:00N 28°08' W 015°25'0 0.0
2017-Dec-10 13:30N 28°08' W 015°25'0 0.4
2017-Dec-10 13:00N 28°08' W 015°25'2 4.1
2017-Dec-10 12:30N 28°07' W 015°23'713.1
2017-Dec-10 12:01N 28°12' W 015°18'816.5
2017-Dec-10 11:31N 28°19' W 015°12'816.4
2017-Dec-10 11:01N 28°25' W 015°06'816.5
2017-Dec-10 10:30N 28°32' W 015°00'5216.5
2017-Dec-10 07:21N 29°12' W 014°23'917.0
2017-Dec-10 06:50N 29°19' W 014°17'617.2
2017-Dec-10 06:30N 29°24' W 014°13'917.3
2017-Dec-10 06:00N 29°30' W 014°07'  
2017-Dec-04 06:54N 28°29' W 016°14'2 5.8
2017-Dec-04 06:30N 28°28' W 016°12'816.3
2017-Dec-04 06:01N 28°25' W 016°03'816.4
2017-Dec-04 05:31N 28°22' W 015°55'816.6
2017-Dec-04 05:01N 28°19' W 015°46'816.1
2017-Dec-04 04:31N 28°16' W 015°37'816.0
2017-Dec-04 04:00N 28°14' W 015°29'714.1
2017-Dec-04 03:30N 28°09' W 015°23'2 3.8
2017-Dec-04 03:00N 28°08' W 015°25'0 0.0
2017-Dec-04 02:27N 28°08' W 015°25'0 0.0
2017-Dec-04 02:00N 28°08' W 015°25'0 0.0
2017-Dec-04 01:30N 28°08' W 015°25'0 0.0
2017-Dec-04 01:00N 28°08' W 015°25'0 0.0
2017-Dec-04 00:30N 28°08' W 015°25'0 0.0
2017-Dec-04 00:00N 28°08' W 015°25'0 0.0
2017-Dec-03 23:30N 28°08' W 015°25'0 0.0
2017-Dec-03 22:57N 28°08' W 015°25'0 0.0
2017-Dec-03 22:30N 28°08' W 015°25'0 0.0
2017-Dec-03 22:00N 28°08' W 015°25'0 0.0
2017-Dec-03 21:30N 28°08' W 015°25'0 0.0
2017-Dec-03 21:00N 28°08' W 015°25'0 0.0
2017-Dec-03 20:30N 28°08' W 015°25'0 0.0
2017-Dec-03 19:51N 28°08' W 015°25'0 0.0
2017-Dec-03 19:21N 28°08' W 015°25'0 0.3
2017-Dec-03 19:00N 28°08' W 015°25'2 4.6
2017-Dec-03 18:30N 28°07' W 015°23'714.5
2017-Dec-03 18:01N 28°13' W 015°17'917.3
2017-Dec-03 17:31N 28°20' W 015°11'816.8
2017-Dec-03 17:01N 28°26' W 015°05'816.8
2017-Dec-03 16:31N 28°33' W 014°59'817.0
2017-Dec-03 16:00N 28°39' W 014°53'  
Track history (hours):
 
Tides and Currents Weather Stations Pressure Air Temp Water Temp Dewpoint Dewpoint Depression Visibility Wind Speed Wind Dir Waves Ship Positions

Annamarie

Last reported at 2017-Dec-11 17:00 UTC. Time now 2017-Dec-12 15:46 UTC.
Position N 28°35' W 015°56'.

Length 138 m; draft 6.2 m.

Type: Cargo ship. MMSI: 255805627.

Date/timePositionNaut miles runAvg speedWind from/ knotsBaromVisibWave heightAir tempDewpointWater temp
2017-Dec-11 17:00N 28°35' W 015°56'612.7
2017-Dec-11 16:30N 28°32' W 016°02'611.1
2017-Dec-11 16:00N 28°30' W 016°08'5 9.9
2017-Dec-11 15:31N 28°29' W 016°14'0 0.7
2017-Dec-11 14:59N 28°29' W 016°14'0 0.0
2017-Dec-11 14:29N 28°29' W 016°14'0 0.0
2017-Dec-11 13:59N 28°29' W 016°14'0 0.0
2017-Dec-11 13:29N 28°29' W 016°14'0 0.0
2017-Dec-11 12:59N 28°29' W 016°14'0 0.0
2017-Dec-11 12:29N 28°29' W 016°14'0 0.0
2017-Dec-11 11:53N 28°29' W 016°14'0 0.0
2017-Dec-11 11:29N 28°29' W 016°14'0 0.0
2017-Dec-11 10:59N 28°29' W 016°14'0 0.0
2017-Dec-11 10:29N 28°29' W 016°14'0 0.0
2017-Dec-11 09:59N 28°29' W 016°14'0 0.0
2017-Dec-11 09:29N 28°29' W 016°14'0 0.0
2017-Dec-11 08:59N 28°29' W 016°14'0 0.0
2017-Dec-11 08:30N 28°29' W 016°14'1 2.3
2017-Dec-11 08:01N 28°28' W 016°13'1 1.0
2017-Dec-11 07:31N 28°28' W 016°12'1 1.1
2017-Dec-11 07:01N 28°28' W 016°12'4 7.5
2017-Dec-11 06:31N 28°26' W 016°08'5 9.3
2017-Dec-11 06:01N 28°25' W 016°03'5 9.5
2017-Dec-11 05:31N 28°23' W 015°58'5 9.5
2017-Dec-11 05:01N 28°21' W 015°53'5 9.1
2017-Dec-11 04:30N 28°19' W 015°48'5 9.5
2017-Dec-11 04:00N 28°18' W 015°43'5 9.8
2017-Dec-11 03:30N 28°16' W 015°38'5 9.6
2017-Dec-11 03:00N 28°15' W 015°33'5 9.6
2017-Dec-11 02:30N 28°13' W 015°28'4 8.9
2017-Dec-11 02:00N 28°11' W 015°23'4 8.7
2017-Dec-11 01:30N 28°07' W 015°24'1 2.1
2017-Dec-11 00:54N 28°08' W 015°25'0 0.0
2017-Dec-11 00:24N 28°08' W 015°25'0 0.0
2017-Dec-10 23:54N 28°08' W 015°25'0 0.0
2017-Dec-10 23:24N 28°08' W 015°25'0 0.0
2017-Dec-10 22:54N 28°08' W 015°25'0 0.0
2017-Dec-10 22:27N 28°08' W 015°25'0 0.0
2017-Dec-10 21:57N 28°08' W 015°25'0 0.0
2017-Dec-10 21:27N 28°08' W 015°25'0 0.0
2017-Dec-10 20:57N 28°08' W 015°25'0 0.0
2017-Dec-10 20:27N 28°08' W 015°25'0 0.0
2017-Dec-10 20:00N 28°08' W 015°25'0 0.0
2017-Dec-10 19:30N 28°08' W 015°25'0 0.0
2017-Dec-10 19:00N 28°08' W 015°25'0 0.0
2017-Dec-10 18:30N 28°08' W 015°25'0 0.0
2017-Dec-10 18:00N 28°08' W 015°25'0 0.0
2017-Dec-10 17:30N 28°08' W 015°25'0 0.0
2017-Dec-10 17:00N 28°08' W 015°25'0 0.0
2017-Dec-10 16:30N 28°08' W 015°25'0 0.0
2017-Dec-10 16:00N 28°08' W 015°25'0 0.0
2017-Dec-10 15:30N 28°08' W 015°25'0 0.0
2017-Dec-10 15:00N 28°08' W 015°25'0 0.0
2017-Dec-10 14:30N 28°08' W 015°25'0 0.0
2017-Dec-10 14:00N 28°08' W 015°25'0 0.0
2017-Dec-10 13:30N 28°08' W 015°25'0 0.4
2017-Dec-10 13:00N 28°08' W 015°25'2 4.1
2017-Dec-10 12:30N 28°07' W 015°23'713.1
2017-Dec-10 12:01N 28°12' W 015°18'816.5
2017-Dec-10 11:31N 28°19' W 015°12'816.4
2017-Dec-10 11:01N 28°25' W 015°06'816.5
2017-Dec-10 10:30N 28°32' W 015°00'5216.5
2017-Dec-10 07:21N 29°12' W 014°23'917.0
2017-Dec-10 06:50N 29°19' W 014°17'617.2
2017-Dec-10 06:30N 29°24' W 014°13'917.3
2017-Dec-10 06:00N 29°30' W 014°07'  
2017-Dec-04 06:54N 28°29' W 016°14'2 5.8
2017-Dec-04 06:30N 28°28' W 016°12'816.3
2017-Dec-04 06:01N 28°25' W 016°03'816.4
2017-Dec-04 05:31N 28°22' W 015°55'816.6
2017-Dec-04 05:01N 28°19' W 015°46'816.1
2017-Dec-04 04:31N 28°16' W 015°37'816.0
2017-Dec-04 04:00N 28°14' W 015°29'714.1
2017-Dec-04 03:30N 28°09' W 015°23'2 3.8
2017-Dec-04 03:00N 28°08' W 015°25'0 0.0
2017-Dec-04 02:27N 28°08' W 015°25'0 0.0
2017-Dec-04 02:00N 28°08' W 015°25'0 0.0
2017-Dec-04 01:30N 28°08' W 015°25'0 0.0
2017-Dec-04 01:00N 28°08' W 015°25'0 0.0
2017-Dec-04 00:30N 28°08' W 015°25'0 0.0
2017-Dec-04 00:00N 28°08' W 015°25'0 0.0
2017-Dec-03 23:30N 28°08' W 015°25'0 0.0
2017-Dec-03 22:57N 28°08' W 015°25'0 0.0
2017-Dec-03 22:30N 28°08' W 015°25'0 0.0
2017-Dec-03 22:00N 28°08' W 015°25'0 0.0
2017-Dec-03 21:30N 28°08' W 015°25'0 0.0
2017-Dec-03 21:00N 28°08' W 015°25'0 0.0
2017-Dec-03 20:30N 28°08' W 015°25'0 0.0
2017-Dec-03 19:51N 28°08' W 015°25'0 0.0
2017-Dec-03 19:21N 28°08' W 015°25'0 0.3
2017-Dec-03 19:00N 28°08' W 015°25'2 4.6
2017-Dec-03 18:30N 28°07' W 015°23'714.5
2017-Dec-03 18:01N 28°13' W 015°17'917.3
2017-Dec-03 17:31N 28°20' W 015°11'816.8
2017-Dec-03 17:01N 28°26' W 015°05'816.8
2017-Dec-03 16:31N 28°33' W 014°59'817.0
2017-Dec-03 16:00N 28°39' W 014°53'  

Dump ship's entire track history